sensor_id;sensor_type;location;lat;lon;timestamp;P1;durP1;ratioP1;P2;durP2;ratioP2
13197;SDS011;6664;52.514;13.440;2023-07-13T00:00:38;2.60;;;2.17;;
13197;SDS011;6664;52.514;13.440;2023-07-13T00:03:27;3.33;;;2.30;;
13197;SDS011;6664;52.514;13.440;2023-07-13T00:06:14;5.80;;;2.37;;
13197;SDS011;6664;52.514;13.440;2023-07-13T00:09:02;6.37;;;2.73;;
13197;SDS011;6664;52.514;13.440;2023-07-13T00:11:51;6.30;;;2.43;;
13197;SDS011;6664;52.514;13.440;2023-07-13T00:14:41;4.40;;;2.90;;
13197;SDS011;6664;52.514;13.440;2023-07-13T00:17:27;3.30;;;2.20;;
13197;SDS011;6664;52.514;13.440;2023-07-13T00:20:13;3.20;;;2.73;;
13197;SDS011;6664;52.514;13.440;2023-07-13T00:22:58;3.03;;;2.20;;
13197;SDS011;6664;52.514;13.440;2023-07-13T00:25:47;5.93;;;2.10;;
13197;SDS011;6664;52.514;13.440;2023-07-13T00:28:33;1.73;;;1.63;;
13197;SDS011;6664;52.514;13.440;2023-07-13T00:31:19;3.83;;;1.60;;
13197;SDS011;6664;52.514;13.440;2023-07-13T00:34:04;2.20;;;2.10;;
13197;SDS011;6664;52.514;13.440;2023-07-13T00:36:50;3.17;;;2.47;;
13197;SDS011;6664;52.514;13.440;2023-07-13T00:39:38;6.27;;;1.93;;
13197;SDS011;6664;52.514;13.440;2023-07-13T00:42:24;2.40;;;2.00;;
13197;SDS011;6664;52.514;13.440;2023-07-13T00:47:58;4.13;;;2.23;;
13197;SDS011;6664;52.514;13.440;2023-07-13T00:50:47;3.23;;;2.10;;
13197;SDS011;6664;52.514;13.440;2023-07-13T00:53:35;1.80;;;1.70;;
13197;SDS011;6664;52.514;13.440;2023-07-13T00:56:20;2.47;;;2.27;;
13197;SDS011;6664;52.514;13.440;2023-07-13T00:59:08;1.77;;;1.50;;
13197;SDS011;6664;52.514;13.440;2023-07-13T01:01:57;3.10;;;2.20;;
13197;SDS011;6664;52.514;13.440;2023-07-13T01:04:45;4.30;;;2.70;;
13197;SDS011;6664;52.514;13.440;2023-07-13T01:07:31;2.03;;;1.63;;
13197;SDS011;6664;52.514;13.440;2023-07-13T01:10:16;3.27;;;2.30;;
13197;SDS011;6664;52.514;13.440;2023-07-13T01:13:06;1.80;;;1.60;;
13197;SDS011;6664;52.514;13.440;2023-07-13T01:15:55;2.00;;;1.90;;
13197;SDS011;6664;52.514;13.440;2023-07-13T01:18:46;6.27;;;2.33;;
13197;SDS011;6664;52.514;13.440;2023-07-13T01:21:32;2.33;;;2.17;;
13197;SDS011;6664;52.514;13.440;2023-07-13T01:24:20;2.23;;;1.93;;
13197;SDS011;6664;52.514;13.440;2023-07-13T01:27:09;2.07;;;1.60;;
13197;SDS011;6664;52.514;13.440;2023-07-13T01:29:58;4.33;;;1.97;;
13197;SDS011;6664;52.514;13.440;2023-07-13T01:32:49;3.70;;;2.13;;
13197;SDS011;6664;52.514;13.440;2023-07-13T01:35:34;3.17;;;2.10;;
13197;SDS011;6664;52.514;13.440;2023-07-13T01:38:21;3.10;;;2.23;;
13197;SDS011;6664;52.514;13.440;2023-07-13T01:41:07;2.53;;;2.30;;
13197;SDS011;6664;52.514;13.440;2023-07-13T01:43:53;3.03;;;2.10;;
13197;SDS011;6664;52.514;13.440;2023-07-13T01:46:38;4.40;;;2.23;;
13197;SDS011;6664;52.514;13.440;2023-07-13T01:49:24;3.57;;;2.10;;
13197;SDS011;6664;52.514;13.440;2023-07-13T01:52:09;4.10;;;2.17;;
13197;SDS011;6664;52.514;13.440;2023-07-13T01:54:57;2.53;;;2.30;;
13197;SDS011;6664;52.514;13.440;2023-07-13T01:57:43;1.80;;;1.70;;
13197;SDS011;6664;52.514;13.440;2023-07-13T02:00:29;5.90;;;2.40;;
13197;SDS011;6664;52.514;13.440;2023-07-13T02:03:15;3.00;;;1.93;;
13197;SDS011;6664;52.514;13.440;2023-07-13T02:06:03;4.63;;;2.37;;
13197;SDS011;6664;52.514;13.440;2023-07-13T02:08:49;3.57;;;2.30;;
13197;SDS011;6664;52.514;13.440;2023-07-13T02:11:36;3.63;;;2.10;;
13197;SDS011;6664;52.514;13.440;2023-07-13T02:14:22;1.83;;;1.73;;
13197;SDS011;6664;52.514;13.440;2023-07-13T02:17:08;3.50;;;2.07;;
13197;SDS011;6664;52.514;13.440;2023-07-13T02:19:54;6.30;;;2.27;;
13197;SDS011;6664;52.514;13.440;2023-07-13T02:22:42;3.27;;;2.97;;
13197;SDS011;6664;52.514;13.440;2023-07-13T02:25:28;3.30;;;2.47;;
13197;SDS011;6664;52.514;13.440;2023-07-13T02:28:13;3.40;;;2.07;;
13197;SDS011;6664;52.514;13.440;2023-07-13T02:31:04;2.37;;;2.17;;
13197;SDS011;6664;52.514;13.440;2023-07-13T02:33:54;3.90;;;2.30;;
13197;SDS011;6664;52.514;13.440;2023-07-13T02:36:40;2.50;;;2.30;;
13197;SDS011;6664;52.514;13.440;2023-07-13T02:39:26;3.33;;;2.30;;
13197;SDS011;6664;52.514;13.440;2023-07-13T02:42:12;2.03;;;1.87;;
13197;SDS011;6664;52.514;13.440;2023-07-13T02:44:57;6.30;;;2.43;;
13197;SDS011;6664;52.514;13.440;2023-07-13T02:47:43;2.47;;;2.27;;
13197;SDS011;6664;52.514;13.440;2023-07-13T02:50:28;3.70;;;2.17;;
13197;SDS011;6664;52.514;13.440;2023-07-13T02:53:16;2.43;;;2.23;;
13197;SDS011;6664;52.514;13.440;2023-07-13T02:56:03;7.13;;;2.13;;
13197;SDS011;6664;52.514;13.440;2023-07-13T02:58:49;2.67;;;2.47;;
13197;SDS011;6664;52.514;13.440;2023-07-13T03:01:35;2.60;;;1.97;;
13197;SDS011;6664;52.514;13.440;2023-07-13T03:04:21;2.63;;;2.40;;
13197;SDS011;6664;52.514;13.440;2023-07-13T03:07:07;2.07;;;1.97;;
13197;SDS011;6664;52.514;13.440;2023-07-13T03:09:56;2.70;;;2.50;;
13197;SDS011;6664;52.514;13.440;2023-07-13T03:12:42;2.60;;;2.37;;
13197;SDS011;6664;52.514;13.440;2023-07-13T03:15:28;5.83;;;2.13;;
13197;SDS011;6664;52.514;13.440;2023-07-13T03:18:13;3.37;;;2.30;;
13197;SDS011;6664;52.514;13.440;2023-07-13T03:21:01;2.00;;;1.80;;
13197;SDS011;6664;52.514;13.440;2023-07-13T03:23:47;4.03;;;2.50;;
13197;SDS011;6664;52.514;13.440;2023-07-13T03:26:33;4.37;;;2.20;;
13197;SDS011;6664;52.514;13.440;2023-07-13T03:29:19;5.90;;;2.20;;
13197;SDS011;6664;52.514;13.440;2023-07-13T03:32:04;6.60;;;2.20;;
13197;SDS011;6664;52.514;13.440;2023-07-13T03:34:50;3.83;;;2.57;;
13197;SDS011;6664;52.514;13.440;2023-07-13T03:37:36;3.80;;;2.00;;
13197;SDS011;6664;52.514;13.440;2023-07-13T03:40:28;2.30;;;2.10;;
13197;SDS011;6664;52.514;13.440;2023-07-13T03:43:13;2.23;;;2.13;;
13197;SDS011;6664;52.514;13.440;2023-07-13T03:45:59;2.90;;;2.30;;
13197;SDS011;6664;52.514;13.440;2023-07-13T03:48:48;3.53;;;1.93;;
13197;SDS011;6664;52.514;13.440;2023-07-13T03:51:34;2.67;;;2.47;;
13197;SDS011;6664;52.514;13.440;2023-07-13T03:54:22;2.07;;;1.83;;
13197;SDS011;6664;52.514;13.440;2023-07-13T03:57:10;3.20;;;2.30;;
13197;SDS011;6664;52.514;13.440;2023-07-13T03:59:55;1.97;;;1.80;;
13197;SDS011;6664;52.514;13.440;2023-07-13T04:02:41;4.50;;;2.50;;
13197;SDS011;6664;52.514;13.440;2023-07-13T04:05:26;2.40;;;1.83;;
13197;SDS011;6664;52.514;13.440;2023-07-13T04:08:13;2.30;;;1.80;;
13197;SDS011;6664;52.514;13.440;2023-07-13T04:10:59;3.90;;;1.50;;
13197;SDS011;6664;52.514;13.440;2023-07-13T04:13:50;3.47;;;1.60;;
13197;SDS011;6664;52.514;13.440;2023-07-13T04:16:39;2.03;;;1.83;;
13197;SDS011;6664;52.514;13.440;2023-07-13T04:19:24;1.67;;;1.57;;
13197;SDS011;6664;52.514;13.440;2023-07-13T04:22:10;1.60;;;1.50;;
13197;SDS011;6664;52.514;13.440;2023-07-13T04:24:55;3.23;;;2.00;;
13197;SDS011;6664;52.514;13.440;2023-07-13T04:27:41;4.73;;;2.00;;
13197;SDS011;6664;52.514;13.440;2023-07-13T04:30:26;5.20;;;2.13;;
13197;SDS011;6664;52.514;13.440;2023-07-13T04:33:12;2.70;;;1.90;;
13197;SDS011;6664;52.514;13.440;2023-07-13T04:35:58;2.93;;;2.40;;
13197;SDS011;6664;52.514;13.440;2023-07-13T04:38:44;2.13;;;1.90;;
13197;SDS011;6664;52.514;13.440;2023-07-13T04:41:29;2.20;;;2.00;;
13197;SDS011;6664;52.514;13.440;2023-07-13T04:44:15;1.73;;;1.63;;
13197;SDS011;6664;52.514;13.440;2023-07-13T04:47:01;3.83;;;2.10;;
13197;SDS011;6664;52.514;13.440;2023-07-13T04:49:46;2.50;;;1.87;;
13197;SDS011;6664;52.514;13.440;2023-07-13T04:52:33;1.90;;;1.80;;
13197;SDS011;6664;52.514;13.440;2023-07-13T04:55:19;1.80;;;1.70;;
13197;SDS011;6664;52.514;13.440;2023-07-13T04:58:04;2.00;;;1.40;;
13197;SDS011;6664;52.514;13.440;2023-07-13T05:00:50;2.47;;;2.00;;
13197;SDS011;6664;52.514;13.440;2023-07-13T05:03:37;1.60;;;1.50;;
13197;SDS011;6664;52.514;13.440;2023-07-13T05:06:25;2.00;;;1.80;;
13197;SDS011;6664;52.514;13.440;2023-07-13T05:09:10;2.07;;;1.90;;
13197;SDS011;6664;52.514;13.440;2023-07-13T05:11:57;4.37;;;1.80;;
13197;SDS011;6664;52.514;13.440;2023-07-13T05:14:42;3.13;;;1.90;;
13197;SDS011;6664;52.514;13.440;2023-07-13T05:17:28;3.87;;;2.10;;
13197;SDS011;6664;52.514;13.440;2023-07-13T05:20:14;2.80;;;2.20;;
13197;SDS011;6664;52.514;13.440;2023-07-13T05:23:02;2.80;;;1.83;;
13197;SDS011;6664;52.514;13.440;2023-07-13T05:25:48;7.27;;;2.13;;
13197;SDS011;6664;52.514;13.440;2023-07-13T05:28:34;3.37;;;1.97;;
13197;SDS011;6664;52.514;13.440;2023-07-13T05:31:19;6.13;;;1.57;;
13197;SDS011;6664;52.514;13.440;2023-07-13T05:34:05;2.30;;;1.73;;
13197;SDS011;6664;52.514;13.440;2023-07-13T05:36:51;4.67;;;1.63;;
13197;SDS011;6664;52.514;13.440;2023-07-13T05:39:39;9.70;;;1.70;;
13197;SDS011;6664;52.514;13.440;2023-07-13T05:42:25;2.33;;;2.10;;
13197;SDS011;6664;52.514;13.440;2023-07-13T05:45:11;2.07;;;1.80;;
13197;SDS011;6664;52.514;13.440;2023-07-13T05:47:56;3.83;;;1.87;;
13197;SDS011;6664;52.514;13.440;2023-07-13T05:50:44;4.40;;;1.90;;
13197;SDS011;6664;52.514;13.440;2023-07-13T05:53:30;6.80;;;2.00;;
13197;SDS011;6664;52.514;13.440;2023-07-13T05:56:16;7.33;;;2.40;;
13197;SDS011;6664;52.514;13.440;2023-07-13T05:59:02;11.63;;;3.00;;
13197;SDS011;6664;52.514;13.440;2023-07-13T06:01:48;5.30;;;2.13;;
13197;SDS011;6664;52.514;13.440;2023-07-13T06:04:34;2.20;;;2.00;;
13197;SDS011;6664;52.514;13.440;2023-07-13T06:07:20;1.97;;;1.77;;
13197;SDS011;6664;52.514;13.440;2023-07-13T06:10:05;4.90;;;2.00;;
13197;SDS011;6664;52.514;13.440;2023-07-13T06:12:52;5.27;;;2.20;;
13197;SDS011;6664;52.514;13.440;2023-07-13T06:15:38;7.20;;;2.30;;
13197;SDS011;6664;52.514;13.440;2023-07-13T06:18:25;2.13;;;1.90;;
13197;SDS011;6664;52.514;13.440;2023-07-13T06:21:12;5.43;;;1.90;;
13197;SDS011;6664;52.514;13.440;2023-07-13T06:24:02;3.10;;;1.83;;
13197;SDS011;6664;52.514;13.440;2023-07-13T06:26:48;2.53;;;2.20;;
13197;SDS011;6664;52.514;13.440;2023-07-13T06:29:36;2.90;;;1.60;;
13197;SDS011;6664;52.514;13.440;2023-07-13T06:32:22;4.37;;;2.03;;
13197;SDS011;6664;52.514;13.440;2023-07-13T06:35:08;2.77;;;2.00;;
13197;SDS011;6664;52.514;13.440;2023-07-13T06:37:57;5.47;;;1.43;;
13197;SDS011;6664;52.514;13.440;2023-07-13T06:40:44;2.13;;;2.03;;
13197;SDS011;6664;52.514;13.440;2023-07-13T06:43:30;6.27;;;1.93;;
13197;SDS011;6664;52.514;13.440;2023-07-13T06:46:16;3.57;;;1.97;;
13197;SDS011;6664;52.514;13.440;2023-07-13T06:49:02;3.13;;;2.23;;
13197;SDS011;6664;52.514;13.440;2023-07-13T06:51:50;1.70;;;1.60;;
13197;SDS011;6664;52.514;13.440;2023-07-13T06:54:36;1.83;;;1.73;;
13197;SDS011;6664;52.514;13.440;2023-07-13T06:57:21;2.77;;;1.63;;
13197;SDS011;6664;52.514;13.440;2023-07-13T07:00:09;2.20;;;2.00;;
13197;SDS011;6664;52.514;13.440;2023-07-13T07:02:56;3.10;;;1.57;;
13197;SDS011;6664;52.514;13.440;2023-07-13T07:05:42;3.97;;;1.20;;
13197;SDS011;6664;52.514;13.440;2023-07-13T07:08:28;2.03;;;1.43;;
13197;SDS011;6664;52.514;13.440;2023-07-13T07:11:14;5.37;;;1.83;;
13197;SDS011;6664;52.514;13.440;2023-07-13T07:14:09;5.70;;;1.70;;
13197;SDS011;6664;52.514;13.440;2023-07-13T07:16:55;2.30;;;1.37;;
13197;SDS011;6664;52.514;13.440;2023-07-13T07:19:44;1.47;;;1.37;;
13197;SDS011;6664;52.514;13.440;2023-07-13T07:22:30;3.43;;;1.20;;
13197;SDS011;6664;52.514;13.440;2023-07-13T07:25:18;6.53;;;1.60;;
13197;SDS011;6664;52.514;13.440;2023-07-13T07:28:04;4.43;;;1.10;;
13197;SDS011;6664;52.514;13.440;2023-07-13T07:30:53;3.47;;;1.50;;
13197;SDS011;6664;52.514;13.440;2023-07-13T07:34:00;5.83;;;1.73;;
13197;SDS011;6664;52.514;13.440;2023-07-13T07:36:45;2.20;;;1.17;;
13197;SDS011;6664;52.514;13.440;2023-07-13T07:39:34;1.83;;;1.47;;
13197;SDS011;6664;52.514;13.440;2023-07-13T07:42:19;3.00;;;1.60;;
13197;SDS011;6664;52.514;13.440;2023-07-13T07:45:06;1.10;;;1.10;;
13197;SDS011;6664;52.514;13.440;2023-07-13T07:47:52;1.33;;;1.23;;
13197;SDS011;6664;52.514;13.440;2023-07-13T07:50:39;3.93;;;1.43;;
13197;SDS011;6664;52.514;13.440;2023-07-13T07:53:25;2.50;;;1.00;;
13197;SDS011;6664;52.514;13.440;2023-07-13T07:56:10;1.20;;;1.10;;
13197;SDS011;6664;52.514;13.440;2023-07-13T07:58:59;3.50;;;1.20;;
13197;SDS011;6664;52.514;13.440;2023-07-13T08:01:47;1.80;;;1.30;;
13197;SDS011;6664;52.514;13.440;2023-07-13T08:04:39;2.40;;;1.20;;
13197;SDS011;6664;52.514;13.440;2023-07-13T08:07:46;2.33;;;1.40;;
13197;SDS011;6664;52.514;13.440;2023-07-13T08:10:34;1.37;;;1.13;;
13197;SDS011;6664;52.514;13.440;2023-07-13T08:13:22;3.20;;;1.97;;
13197;SDS011;6664;52.514;13.440;2023-07-13T08:16:08;1.33;;;1.10;;
13197;SDS011;6664;52.514;13.440;2023-07-13T08:18:54;4.00;;;1.20;;
13197;SDS011;6664;52.514;13.440;2023-07-13T08:21:40;1.90;;;1.40;;
13197;SDS011;6664;52.514;13.440;2023-07-13T08:24:26;1.67;;;1.30;;
13197;SDS011;6664;52.514;13.440;2023-07-13T08:27:12;1.73;;;1.13;;
13197;SDS011;6664;52.514;13.440;2023-07-13T08:29:58;1.53;;;1.00;;
13197;SDS011;6664;52.514;13.440;2023-07-13T08:32:44;1.37;;;1.07;;
13197;SDS011;6664;52.514;13.440;2023-07-13T08:35:30;2.80;;;1.23;;
13197;SDS011;6664;52.514;13.440;2023-07-13T08:38:16;2.43;;;1.00;;
13197;SDS011;6664;52.514;13.440;2023-07-13T08:41:14;3.83;;;1.40;;
13197;SDS011;6664;52.514;13.440;2023-07-13T08:44:01;2.53;;;1.10;;
13197;SDS011;6664;52.514;13.440;2023-07-13T08:46:52;5.17;;;1.10;;
13197;SDS011;6664;52.514;13.440;2023-07-13T08:49:39;3.23;;;1.00;;
13197;SDS011;6664;52.514;13.440;2023-07-13T08:55:33;8.10;;;1.33;;
13197;SDS011;6664;52.514;13.440;2023-07-13T08:58:24;1.60;;;1.23;;
13197;SDS011;6664;52.514;13.440;2023-07-13T09:04:50;3.90;;;1.13;;
13197;SDS011;6664;52.514;13.440;2023-07-13T09:14:12;2.37;;;1.20;;
13197;SDS011;6664;52.514;13.440;2023-07-13T09:17:30;1.00;;;1.00;;
13197;SDS011;6664;52.514;13.440;2023-07-13T09:20:44;3.33;;;1.30;;
13197;SDS011;6664;52.514;13.440;2023-07-13T09:23:36;1.40;;;1.30;;
13197;SDS011;6664;52.514;13.440;2023-07-13T09:26:24;1.83;;;1.27;;
13197;SDS011;6664;52.514;13.440;2023-07-13T09:29:32;4.30;;;1.30;;
13197;SDS011;6664;52.514;13.440;2023-07-13T09:32:21;2.27;;;1.43;;
13197;SDS011;6664;52.514;13.440;2023-07-13T09:35:10;2.50;;;1.20;;
13197;SDS011;6664;52.514;13.440;2023-07-13T09:37:58;2.93;;;1.20;;
13197;SDS011;6664;52.514;13.440;2023-07-13T09:41:10;2.00;;;1.33;;
13197;SDS011;6664;52.514;13.440;2023-07-13T09:47:03;1.30;;;1.10;;
13197;SDS011;6664;52.514;13.440;2023-07-13T09:50:17;5.60;;;1.30;;
13197;SDS011;6664;52.514;13.440;2023-07-13T09:53:11;1.47;;;1.30;;
13197;SDS011;6664;52.514;13.440;2023-07-13T09:55:58;3.67;;;1.50;;
13197;SDS011;6664;52.514;13.440;2023-07-13T09:58:44;1.20;;;1.20;;
13197;SDS011;6664;52.514;13.440;2023-07-13T10:01:36;4.00;;;2.23;;
13197;SDS011;6664;52.514;13.440;2023-07-13T10:04:29;4.83;;;2.17;;
13197;SDS011;6664;52.514;13.440;2023-07-13T10:07:17;2.37;;;1.70;;
13197;SDS011;6664;52.514;13.440;2023-07-13T10:10:17;3.60;;;1.87;;
13197;SDS011;6664;52.514;13.440;2023-07-13T10:13:09;2.47;;;1.70;;
13197;SDS011;6664;52.514;13.440;2023-07-13T10:16:10;1.93;;;1.70;;
13197;SDS011;6664;52.514;13.440;2023-07-13T10:18:57;2.10;;;1.90;;
13197;SDS011;6664;52.514;13.440;2023-07-13T10:21:56;2.07;;;1.97;;
13197;SDS011;6664;52.514;13.440;2023-07-13T10:24:47;4.07;;;2.10;;
13197;SDS011;6664;52.514;13.440;2023-07-13T10:27:38;3.03;;;1.63;;
13197;SDS011;6664;52.514;13.440;2023-07-13T10:30:26;1.70;;;1.60;;
13197;SDS011;6664;52.514;13.440;2023-07-13T10:33:18;6.33;;;1.77;;
13197;SDS011;6664;52.514;13.440;2023-07-13T10:39:17;2.50;;;1.60;;
13197;SDS011;6664;52.514;13.440;2023-07-13T10:42:06;1.93;;;1.50;;
13197;SDS011;6664;52.514;13.440;2023-07-13T10:45:00;2.57;;;1.57;;
13197;SDS011;6664;52.514;13.440;2023-07-13T10:47:46;2.80;;;1.77;;
13197;SDS011;6664;52.514;13.440;2023-07-13T10:50:34;1.50;;;1.40;;
13197;SDS011;6664;52.514;13.440;2023-07-13T10:56:28;1.50;;;1.40;;
13197;SDS011;6664;52.514;13.440;2023-07-13T10:59:18;9.50;;;2.20;;
13197;SDS011;6664;52.514;13.440;2023-07-13T11:02:36;1.50;;;1.40;;
13197;SDS011;6664;52.514;13.440;2023-07-13T11:08:16;10.50;;;1.50;;
13197;SDS011;6664;52.514;13.440;2023-07-13T11:11:04;18.20;;;1.90;;
13197;SDS011;6664;52.514;13.440;2023-07-13T11:14:28;3.53;;;1.60;;
13197;SDS011;6664;52.514;13.440;2023-07-13T11:17:32;1.73;;;1.63;;
13197;SDS011;6664;52.514;13.440;2023-07-13T11:20:38;1.27;;;1.17;;
13197;SDS011;6664;52.514;13.440;2023-07-13T11:23:28;1.20;;;1.20;;
13197;SDS011;6664;52.514;13.440;2023-07-13T11:29:33;2.93;;;1.67;;
13197;SDS011;6664;52.514;13.440;2023-07-13T11:32:30;3.73;;;1.50;;
13197;SDS011;6664;52.514;13.440;2023-07-13T11:35:22;3.90;;;2.10;;
13197;SDS011;6664;52.514;13.440;2023-07-13T11:38:21;3.47;;;1.87;;
13197;SDS011;6664;52.514;13.440;2023-07-13T11:44:48;1.83;;;1.40;;
13197;SDS011;6664;52.514;13.440;2023-07-13T11:47:54;5.70;;;1.70;;
13197;SDS011;6664;52.514;13.440;2023-07-13T11:50:41;2.17;;;1.70;;
13197;SDS011;6664;52.514;13.440;2023-07-13T11:53:38;8.13;;;2.17;;
13197;SDS011;6664;52.514;13.440;2023-07-13T11:56:31;4.33;;;1.60;;
13197;SDS011;6664;52.514;13.440;2023-07-13T11:59:22;4.90;;;1.57;;
13197;SDS011;6664;52.514;13.440;2023-07-13T12:02:12;3.47;;;1.30;;
13197;SDS011;6664;52.514;13.440;2023-07-13T12:05:04;5.67;;;1.80;;
13197;SDS011;6664;52.514;13.440;2023-07-13T12:07:51;2.40;;;1.60;;
13197;SDS011;6664;52.514;13.440;2023-07-13T12:10:38;1.17;;;1.17;;
13197;SDS011;6664;52.514;13.440;2023-07-13T12:13:23;1.83;;;1.47;;
13197;SDS011;6664;52.514;13.440;2023-07-13T12:16:18;2.10;;;1.73;;
13197;SDS011;6664;52.514;13.440;2023-07-13T12:19:09;1.30;;;1.20;;
13197;SDS011;6664;52.514;13.440;2023-07-13T12:22:01;2.57;;;1.50;;
13197;SDS011;6664;52.514;13.440;2023-07-13T12:24:49;2.50;;;1.67;;
13197;SDS011;6664;52.514;13.440;2023-07-13T12:27:39;2.83;;;1.63;;
13197;SDS011;6664;52.514;13.440;2023-07-13T12:30:28;1.97;;;1.43;;
13197;SDS011;6664;52.514;13.440;2023-07-13T12:33:16;3.87;;;1.53;;
13197;SDS011;6664;52.514;13.440;2023-07-13T12:36:03;3.80;;;1.73;;
13197;SDS011;6664;52.514;13.440;2023-07-13T12:38:51;5.13;;;1.47;;
13197;SDS011;6664;52.514;13.440;2023-07-13T12:41:36;2.43;;;1.13;;
13197;SDS011;6664;52.514;13.440;2023-07-13T12:44:30;1.57;;;1.40;;
13197;SDS011;6664;52.514;13.440;2023-07-13T12:47:19;5.50;;;1.30;;
13197;SDS011;6664;52.514;13.440;2023-07-13T12:50:14;1.50;;;1.37;;
13197;SDS011;6664;52.514;13.440;2023-07-13T12:53:06;6.93;;;1.10;;
13197;SDS011;6664;52.514;13.440;2023-07-13T12:56:01;1.67;;;1.17;;
13197;SDS011;6664;52.514;13.440;2023-07-13T12:58:48;1.20;;;1.10;;
13197;SDS011;6664;52.514;13.440;2023-07-13T13:01:39;2.38;;;0.90;;
13197;SDS011;6664;52.514;13.440;2023-07-13T13:04:26;2.78;;;0.80;;
13197;SDS011;6664;52.514;13.440;2023-07-13T13:07:12;2.42;;;1.42;;
13197;SDS011;6664;52.514;13.440;2023-07-13T13:09:58;1.33;;;1.00;;
13197;SDS011;6664;52.514;13.440;2023-07-13T13:12:43;1.38;;;1.15;;
13197;SDS011;6664;52.514;13.440;2023-07-13T13:15:29;1.13;;;0.90;;
13197;SDS011;6664;52.514;13.440;2023-07-13T13:18:15;3.13;;;1.08;;
13197;SDS011;6664;52.514;13.440;2023-07-13T13:21:03;1.70;;;1.10;;
13197;SDS011;6664;52.514;13.440;2023-07-13T13:23:48;1.17;;;1.08;;
13197;SDS011;6664;52.514;13.440;2023-07-13T13:26:36;1.58;;;0.90;;
13197;SDS011;6664;52.514;13.440;2023-07-13T13:29:23;4.57;;;1.25;;
13197;SDS011;6664;52.514;13.440;2023-07-13T13:32:13;6.43;;;0.88;;
13197;SDS011;6664;52.514;13.440;2023-07-13T13:34:59;1.45;;;0.98;;
13197;SDS011;6664;52.514;13.440;2023-07-13T13:37:45;0.80;;;0.80;;
13197;SDS011;6664;52.514;13.440;2023-07-13T13:40:35;1.85;;;1.08;;
13197;SDS011;6664;52.514;13.440;2023-07-13T13:43:23;2.72;;;1.85;;
13197;SDS011;6664;52.514;13.440;2023-07-13T13:46:23;1.67;;;1.20;;
13197;SDS011;6664;52.514;13.440;2023-07-13T13:49:17;3.22;;;1.00;;
13197;SDS011;6664;52.514;13.440;2023-07-13T13:52:08;0.70;;;0.70;;
13197;SDS011;6664;52.514;13.440;2023-07-13T13:54:55;1.40;;;0.90;;
13197;SDS011;6664;52.514;13.440;2023-07-13T13:57:41;3.90;;;1.17;;
13197;SDS011;6664;52.514;13.440;2023-07-13T14:00:29;1.92;;;1.02;;
13197;SDS011;6664;52.514;13.440;2023-07-13T14:03:19;1.17;;;0.80;;
13197;SDS011;6664;52.514;13.440;2023-07-13T14:06:08;7.35;;;1.25;;
13197;SDS011;6664;52.514;13.440;2023-07-13T14:08:59;1.30;;;0.82;;
13197;SDS011;6664;52.514;13.440;2023-07-13T14:11:46;1.42;;;0.80;;
13197;SDS011;6664;52.514;13.440;2023-07-13T14:14:39;1.15;;;0.70;;
13197;SDS011;6664;52.514;13.440;2023-07-13T14:17:26;2.40;;;0.90;;
13197;SDS011;6664;52.514;13.440;2023-07-13T14:20:16;1.10;;;0.98;;
13197;SDS011;6664;52.514;13.440;2023-07-13T14:23:04;3.65;;;1.08;;
13197;SDS011;6664;52.514;13.440;2023-07-13T14:25:49;5.32;;;1.38;;
13197;SDS011;6664;52.514;13.440;2023-07-13T14:28:40;1.45;;;1.35;;
13197;SDS011;6664;52.514;13.440;2023-07-13T14:31:31;0.95;;;0.90;;
13197;SDS011;6664;52.514;13.440;2023-07-13T14:34:17;1.27;;;1.00;;
13197;SDS011;6664;52.514;13.440;2023-07-13T14:37:03;1.50;;;1.25;;
13197;SDS011;6664;52.514;13.440;2023-07-13T14:39:49;1.20;;;1.10;;
13197;SDS011;6664;52.514;13.440;2023-07-13T14:42:37;2.88;;;1.00;;
13197;SDS011;6664;52.514;13.440;2023-07-13T14:45:22;2.80;;;1.10;;
13197;SDS011;6664;52.514;13.440;2023-07-13T14:48:27;4.73;;;1.67;;
13197;SDS011;6664;52.514;13.440;2023-07-13T14:51:15;1.70;;;1.00;;
13197;SDS011;6664;52.514;13.440;2023-07-13T14:54:02;2.20;;;1.07;;
13197;SDS011;6664;52.514;13.440;2023-07-13T14:56:50;2.60;;;1.37;;
13197;SDS011;6664;52.514;13.440;2023-07-13T14:59:36;4.93;;;1.37;;
13197;SDS011;6664;52.514;13.440;2023-07-13T15:05:20;3.07;;;1.10;;
13197;SDS011;6664;52.514;13.440;2023-07-13T15:08:11;1.17;;;1.03;;
13197;SDS011;6664;52.514;13.440;2023-07-13T15:10:57;1.27;;;1.07;;
13197;SDS011;6664;52.514;13.440;2023-07-13T15:13:45;1.17;;;1.07;;
13197;SDS011;6664;52.514;13.440;2023-07-13T15:16:33;0.90;;;0.80;;
13197;SDS011;6664;52.514;13.440;2023-07-13T15:19:22;3.87;;;0.93;;
13197;SDS011;6664;52.514;13.440;2023-07-13T15:22:08;1.23;;;0.90;;
13197;SDS011;6664;52.514;13.440;2023-07-13T15:24:55;0.80;;;0.80;;
13197;SDS011;6664;52.514;13.440;2023-07-13T15:27:45;0.90;;;0.90;;
13197;SDS011;6664;52.514;13.440;2023-07-13T15:30:36;4.20;;;1.20;;
13197;SDS011;6664;52.514;13.440;2023-07-13T15:33:27;1.30;;;0.90;;
13197;SDS011;6664;52.514;13.440;2023-07-13T15:36:15;1.00;;;0.90;;
13197;SDS011;6664;52.514;13.440;2023-07-13T15:39:02;1.60;;;1.00;;
13197;SDS011;6664;52.514;13.440;2023-07-13T15:41:48;3.60;;;0.80;;
13197;SDS011;6664;52.514;13.440;2023-07-13T15:44:33;2.27;;;1.07;;
13197;SDS011;6664;52.514;13.440;2023-07-13T15:47:20;1.47;;;0.90;;
13197;SDS011;6664;52.514;13.440;2023-07-13T15:50:08;7.70;;;1.00;;
13197;SDS011;6664;52.514;13.440;2023-07-13T15:53:01;1.13;;;1.03;;
13197;SDS011;6664;52.514;13.440;2023-07-13T15:55:47;1.63;;;1.03;;
13197;SDS011;6664;52.514;13.440;2023-07-13T15:58:37;1.57;;;0.90;;
13197;SDS011;6664;52.514;13.440;2023-07-13T16:01:24;1.63;;;0.90;;
13197;SDS011;6664;52.514;13.440;2023-07-13T16:04:12;2.03;;;1.00;;
13197;SDS011;6664;52.514;13.440;2023-07-13T16:07:01;4.00;;;1.27;;
13197;SDS011;6664;52.514;13.440;2023-07-13T16:09:48;1.27;;;0.90;;
13197;SDS011;6664;52.514;13.440;2023-07-13T16:12:35;2.00;;;0.90;;
13197;SDS011;6664;52.514;13.440;2023-07-13T16:15:27;7.10;;;0.90;;
13197;SDS011;6664;52.514;13.440;2023-07-13T16:18:13;1.37;;;0.87;;
13197;SDS011;6664;52.514;13.440;2023-07-13T16:21:05;7.97;;;1.00;;
13197;SDS011;6664;52.514;13.440;2023-07-13T16:24:00;1.13;;;0.90;;
13197;SDS011;6664;52.514;13.440;2023-07-13T16:26:49;1.20;;;1.10;;
13197;SDS011;6664;52.514;13.440;2023-07-13T16:29:35;1.10;;;0.97;;
13197;SDS011;6664;52.514;13.440;2023-07-13T16:32:24;1.27;;;1.17;;
13197;SDS011;6664;52.514;13.440;2023-07-13T16:35:13;1.87;;;0.93;;
13197;SDS011;6664;52.514;13.440;2023-07-13T16:38:01;3.73;;;1.20;;
13197;SDS011;6664;52.514;13.440;2023-07-13T16:40:48;1.00;;;1.00;;
13197;SDS011;6664;52.514;13.440;2023-07-13T16:43:35;1.30;;;0.80;;
13197;SDS011;6664;52.514;13.440;2023-07-13T16:46:22;3.53;;;1.10;;
13197;SDS011;6664;52.514;13.440;2023-07-13T16:49:19;3.30;;;1.30;;
13197;SDS011;6664;52.514;13.440;2023-07-13T16:52:10;1.13;;;1.10;;
13197;SDS011;6664;52.514;13.440;2023-07-13T16:55:01;1.33;;;1.23;;
13197;SDS011;6664;52.514;13.440;2023-07-13T16:57:46;1.30;;;0.90;;
13197;SDS011;6664;52.514;13.440;2023-07-13T17:00:33;1.63;;;1.10;;
13197;SDS011;6664;52.514;13.440;2023-07-13T17:03:21;1.20;;;1.10;;
13197;SDS011;6664;52.514;13.440;2023-07-13T17:06:23;1.37;;;1.10;;
13197;SDS011;6664;52.514;13.440;2023-07-13T17:09:12;3.73;;;1.27;;
13197;SDS011;6664;52.514;13.440;2023-07-13T17:12:01;41.23;;;1.90;;
13197;SDS011;6664;52.514;13.440;2023-07-13T17:14:50;3.93;;;1.27;;
13197;SDS011;6664;52.514;13.440;2023-07-13T17:17:36;4.73;;;1.60;;
13197;SDS011;6664;52.514;13.440;2023-07-13T17:20:28;2.33;;;1.20;;
13197;SDS011;6664;52.514;13.440;2023-07-13T17:23:17;2.43;;;1.47;;
13197;SDS011;6664;52.514;13.440;2023-07-13T17:26:05;4.33;;;1.47;;
13197;SDS011;6664;52.514;13.440;2023-07-13T17:28:51;3.63;;;1.70;;
13197;SDS011;6664;52.514;13.440;2023-07-13T17:31:37;2.00;;;1.23;;
13197;SDS011;6664;52.514;13.440;2023-07-13T17:34:25;4.77;;;1.37;;